createdAt,value
2023-01-25T00:01:12.064Z,16.88
2023-01-25T00:03:44.087Z,16.67
2023-01-25T00:07:06.045Z,18.00
2023-01-25T00:09:38.064Z,16.92
2023-01-25T00:12:34.628Z,17.83
2023-01-25T00:15:07.838Z,17.25
2023-01-25T00:17:40.086Z,16.35
2023-01-25T00:20:12.219Z,17.00
2023-01-25T00:22:44.172Z,17.42
2023-01-25T00:25:16.206Z,18.17
2023-01-25T00:27:51.259Z,18.05
2023-01-25T00:30:23.259Z,18.48
2023-01-25T00:33:07.770Z,18.00
2023-01-25T00:35:39.881Z,17.33
2023-01-25T00:38:34.402Z,19.35
2023-01-25T00:41:08.188Z,18.05
2023-01-25T00:43:40.210Z,18.50
2023-01-25T00:46:17.077Z,17.75
2023-01-25T00:48:49.426Z,18.02
2023-01-25T00:51:25.721Z,19.90
2023-01-25T00:54:09.233Z,19.35
2023-01-25T00:56:41.276Z,19.23
2023-01-25T00:59:17.034Z,19.20
2023-01-25T01:01:49.715Z,19.40
2023-01-25T01:05:06.174Z,19.40
2023-01-25T01:07:39.694Z,18.55
2023-01-25T01:13:28.835Z,20.05
2023-01-25T01:16:04.179Z,20.48
2023-01-25T01:18:41.414Z,21.40
2023-01-25T01:21:14.113Z,21.00
2023-01-25T01:23:46.239Z,21.80
2023-01-25T01:26:21.402Z,20.60
2023-01-25T01:29:07.496Z,20.63
2023-01-25T01:31:39.624Z,23.98
2023-01-25T01:34:14.906Z,23.38
2023-01-25T01:36:46.951Z,21.63
2023-01-25T01:39:19.619Z,23.50
2023-01-25T01:41:51.696Z,20.85
2023-01-25T01:44:51.547Z,24.75
2023-01-25T01:47:49.142Z,24.00
2023-01-25T01:50:24.842Z,22.55
2023-01-25T01:52:57.003Z,22.13
2023-01-25T01:55:29.299Z,21.02
2023-01-25T01:58:03.664Z,22.15
2023-01-25T02:00:40.423Z,21.65
2023-01-25T02:03:18.313Z,24.23
2023-01-25T02:05:56.559Z,24.20
2023-01-25T02:10:02.130Z,23.88
2023-01-25T02:12:35.560Z,23.20
2023-01-25T02:15:09.091Z,21.50
2023-01-25T02:17:42.782Z,22.38
2023-01-25T02:20:37.792Z,21.77
2023-01-25T02:23:33.946Z,19.95
2023-01-25T02:26:07.196Z,19.77
2023-01-25T02:28:53.361Z,19.83
2023-01-25T02:31:25.775Z,20.52
2023-01-25T02:33:57.845Z,19.83
2023-01-25T02:36:35.257Z,20.20
2023-01-25T02:39:20.286Z,21.60
2023-01-25T02:41:52.943Z,21.65
2023-01-25T02:44:34.438Z,21.63
2023-01-25T02:47:06.695Z,21.02
2023-01-25T02:50:15.048Z,22.83
2023-01-25T02:52:47.773Z,25.45
2023-01-25T02:55:19.808Z,22.95
2023-01-25T02:57:51.789Z,24.20
2023-01-25T03:00:23.784Z,25.88
2023-01-25T03:02:55.880Z,26.30
2023-01-25T03:05:28.023Z,23.95
2023-01-25T03:08:00.133Z,25.73
2023-01-25T03:10:32.117Z,24.10
2023-01-25T03:13:04.132Z,25.80
2023-01-25T03:15:36.183Z,25.50
2023-01-25T03:18:08.252Z,24.25
2023-01-25T03:20:40.319Z,25.55
2023-01-25T03:23:37.932Z,26.58
2023-01-25T03:26:16.079Z,27.00
2023-01-25T03:28:48.173Z,25.95
2023-01-25T03:31:20.459Z,25.45
2023-01-25T03:33:52.635Z,26.75
2023-01-25T03:36:37.824Z,25.88
2023-01-25T03:39:10.028Z,27.40
2023-01-25T03:44:43.234Z,26.63
2023-01-25T03:50:14.509Z,29.60
2023-01-25T03:52:50.130Z,28.15
2023-01-25T03:55:22.095Z,26.83
2023-01-25T03:57:54.258Z,30.17
2023-01-25T04:00:26.342Z,31.48
2023-01-25T04:02:58.383Z,30.60
2023-01-25T04:05:30.378Z,34.78
2023-01-25T04:08:02.360Z,31.13
2023-01-25T04:10:35.664Z,32.85
2023-01-25T04:13:07.846Z,32.45
2023-01-25T04:15:40.339Z,34.67
2023-01-25T04:18:12.378Z,32.65
2023-01-25T04:20:45.575Z,34.20
2023-01-25T04:23:17.551Z,30.80
2023-01-25T04:25:58.625Z,32.10
2023-01-25T04:28:31.385Z,30.92
2023-01-25T04:33:53.183Z,32.22
2023-01-25T04:36:25.138Z,32.40
2023-01-25T04:38:57.226Z,30.70
2023-01-25T04:41:31.442Z,30.55
2023-01-25T04:44:03.558Z,31.08
2023-01-25T04:46:35.557Z,31.05
2023-01-25T04:49:07.598Z,30.17
2023-01-25T04:51:39.662Z,30.38
2023-01-25T04:54:11.707Z,30.33
2023-01-25T04:56:43.698Z,30.55
2023-01-25T04:59:15.829Z,28.38
2023-01-25T05:02:05.714Z,30.50
2023-01-25T05:04:37.840Z,31.20
2023-01-25T05:07:09.939Z,30.48
2023-01-25T05:09:42.012Z,29.52
2023-01-25T05:12:14.130Z,30.80
2023-01-25T05:17:47.425Z,28.85
2023-01-25T05:20:19.513Z,29.95
2023-01-25T05:22:51.522Z,29.20
2023-01-25T05:25:41.862Z,28.13
2023-01-25T05:28:14.317Z,29.85
2023-01-25T05:30:46.551Z,30.48
2023-01-25T05:33:18.525Z,29.10
2023-01-25T05:36:35.713Z,30.42
2023-01-25T05:39:08.784Z,30.38
2023-01-25T05:41:40.854Z,28.48
2023-01-25T05:44:12.822Z,28.63
2023-01-25T05:46:45.221Z,31.88
2023-01-25T05:49:18.375Z,31.35
2023-01-25T05:51:50.399Z,31.40
2023-01-25T05:54:23.792Z,31.80
2023-01-25T05:56:55.941Z,28.30
2023-01-25T05:59:27.969Z,31.48
2023-01-25T06:01:59.994Z,30.33
2023-01-25T06:04:32.116Z,30.13
2023-01-25T06:07:06.974Z,32.08
2023-01-25T06:09:38.943Z,29.50
2023-01-25T06:12:10.982Z,31.08
2023-01-25T06:14:43.193Z,33.33
2023-01-25T06:17:15.293Z,32.85
2023-01-25T06:19:49.074Z,31.13
2023-01-25T06:22:21.102Z,32.50
2023-01-25T06:24:53.018Z,31.83
2023-01-25T06:30:34.652Z,32.78
2023-01-25T06:33:08.390Z,33.30
2023-01-25T06:35:43.539Z,32.30
2023-01-25T06:38:15.515Z,33.35
2023-01-25T06:40:47.467Z,30.25
2023-01-25T06:43:19.508Z,34.00
2023-01-25T06:45:51.553Z,32.38
2023-01-25T06:48:23.575Z,31.85
2023-01-25T06:51:01.852Z,30.40
2023-01-25T06:53:39.612Z,31.83
2023-01-25T06:56:26.098Z,32.45
2023-01-25T07:02:00.929Z,32.70
2023-01-25T07:05:07.201Z,32.55
2023-01-25T07:07:39.412Z,29.35
2023-01-25T07:10:48.208Z,31.08
2023-01-25T07:13:22.251Z,29.42
2023-01-25T07:16:04.509Z,29.27
2023-01-25T07:18:39.579Z,30.35
2023-01-25T07:21:21.522Z,32.33
2023-01-25T07:23:53.545Z,31.55
2023-01-25T07:26:26.333Z,31.60
2023-01-25T07:28:59.719Z,33.85
2023-01-25T07:34:20.307Z,31.52
2023-01-25T07:36:52.297Z,33.15
2023-01-25T07:39:26.688Z,33.83
2023-01-25T07:41:58.751Z,32.55
2023-01-25T07:44:30.719Z,31.48
2023-01-25T07:47:02.733Z,33.33
2023-01-25T07:49:34.928Z,33.40
2023-01-25T07:52:07.063Z,32.55
2023-01-25T07:54:39.025Z,35.28
2023-01-25T07:57:11.250Z,35.65
2023-01-25T07:59:43.375Z,33.35
2023-01-25T08:02:15.407Z,33.25
2023-01-25T08:04:50.360Z,31.88
2023-01-25T08:07:23.865Z,32.28
2023-01-25T08:09:56.208Z,31.63
2023-01-25T08:12:28.911Z,32.08
2023-01-25T08:15:01.701Z,31.27
2023-01-25T08:17:33.702Z,34.55
2023-01-25T08:20:08.067Z,32.40
2023-01-25T08:22:40.263Z,33.50
2023-01-25T08:25:36.249Z,33.88
2023-01-25T08:28:08.417Z,33.80
2023-01-25T08:30:52.049Z,34.13
2023-01-25T08:33:28.285Z,33.72
2023-01-25T08:36:00.500Z,36.60
2023-01-25T08:38:33.003Z,35.47
2023-01-25T08:41:19.202Z,36.10
2023-01-25T08:43:54.103Z,35.78
2023-01-25T08:46:31.931Z,34.92
2023-01-25T08:49:05.114Z,38.22
2023-01-25T08:51:37.100Z,34.60
2023-01-25T08:54:12.928Z,36.97
2023-01-25T08:56:50.793Z,35.17
2023-01-25T08:59:23.128Z,36.15
2023-01-25T09:01:55.110Z,34.78
2023-01-25T09:04:28.564Z,36.40
2023-01-25T09:07:00.812Z,35.42
2023-01-25T09:09:32.914Z,34.75
2023-01-25T09:12:05.605Z,36.45
2023-01-25T09:14:40.351Z,36.15
2023-01-25T09:17:12.360Z,35.92
2023-01-25T09:19:44.338Z,34.20
2023-01-25T09:22:16.267Z,35.20
2023-01-25T09:24:52.472Z,34.88
2023-01-25T09:27:24.656Z,33.05
2023-01-25T09:31:24.250Z,32.78
2023-01-25T09:33:35.584Z,31.88
2023-01-25T09:36:08.599Z,32.58
2023-01-25T09:38:42.389Z,29.50
2023-01-25T09:41:29.384Z,28.80
2023-01-25T09:44:24.328Z,31.05
2023-01-25T09:47:36.870Z,29.98
2023-01-25T09:50:37.795Z,30.27
2023-01-25T09:53:38.448Z,29.70
2023-01-25T09:56:16.625Z,30.40
2023-01-25T09:58:55.003Z,30.73
2023-01-25T10:01:43.475Z,29.08
2023-01-25T10:04:25.228Z,28.90
2023-01-25T10:07:11.464Z,28.75
2023-01-25T10:09:52.981Z,28.05
2023-01-25T10:12:26.864Z,27.88
2023-01-25T10:14:58.899Z,28.25
2023-01-25T10:17:41.755Z,26.75
2023-01-25T10:21:05.645Z,29.00
2023-01-25T10:23:52.432Z,29.77
2023-01-25T10:26:29.952Z,29.63
2023-01-25T10:29:36.644Z,28.73
2023-01-25T10:32:32.004Z,29.08
2023-01-25T10:35:42.010Z,28.20
2023-01-25T10:38:59.316Z,30.85
2023-01-25T10:41:42.259Z,28.15
2023-01-25T10:44:26.593Z,29.20
2023-01-25T10:47:03.700Z,31.08
2023-01-25T10:49:48.047Z,33.72
2023-01-25T10:52:23.250Z,32.10
2023-01-25T10:55:23.719Z,31.55
2023-01-25T10:58:00.507Z,32.08
2023-01-25T11:00:42.092Z,33.53
2023-01-25T11:03:22.088Z,34.00
2023-01-25T11:05:58.158Z,33.83
2023-01-25T11:08:39.215Z,35.95
2023-01-25T11:12:16.257Z,35.47
2023-01-25T11:14:50.116Z,34.08
2023-01-25T11:17:32.206Z,33.38
2023-01-25T11:20:22.463Z,34.35
2023-01-25T11:25:34.211Z,32.70
2023-01-25T11:28:28.800Z,34.65
2023-01-25T11:31:02.548Z,31.75
2023-01-25T11:33:36.080Z,32.65
2023-01-25T11:40:24.387Z,37.13
2023-01-25T11:43:14.328Z,32.25
2023-01-25T11:46:09.322Z,31.85
2023-01-25T11:49:57.577Z,32.05
2023-01-25T11:53:38.041Z,29.95
2023-01-25T11:56:41.720Z,30.75
2023-01-25T11:59:32.391Z,29.90
2023-01-25T12:02:38.812Z,32.17
2023-01-25T12:05:37.727Z,29.58
2023-01-25T12:08:47.117Z,31.08
2023-01-25T12:11:52.552Z,31.05
2023-01-25T12:14:44.862Z,30.05
2023-01-25T12:18:05.435Z,30.75
2023-01-25T12:20:58.518Z,33.80
2023-01-25T12:24:17.015Z,32.95
2023-01-25T12:27:07.734Z,33.20
2023-01-25T12:29:45.385Z,32.97
2023-01-25T12:32:33.836Z,32.55
2023-01-25T12:35:51.230Z,33.53
2023-01-25T12:38:34.366Z,31.70
2023-01-25T12:41:09.201Z,33.88
2023-01-25T12:43:49.874Z,35.97
2023-01-25T12:46:32.167Z,35.50
2023-01-25T12:49:15.990Z,33.17
2023-01-25T12:51:49.979Z,33.55
2023-01-25T12:54:39.269Z,33.22
2023-01-25T12:57:42.707Z,34.23
2023-01-25T13:00:29.488Z,33.83
2023-01-25T13:03:41.510Z,34.45
2023-01-25T13:06:42.518Z,32.88
2023-01-25T13:09:28.969Z,31.30
2023-01-25T13:12:04.766Z,34.15
2023-01-25T13:15:38.932Z,33.70
2023-01-25T13:18:29.331Z,32.58
2023-01-25T13:21:11.612Z,31.25
2023-01-25T13:23:50.245Z,33.05
2023-01-25T13:26:22.269Z,30.48
2023-01-25T13:28:56.605Z,36.67
2023-01-25T13:31:58.991Z,32.78
2023-01-25T13:34:40.331Z,31.55
2023-01-25T13:37:33.562Z,31.90
2023-01-25T13:40:33.756Z,32.03
2023-01-25T13:46:18.010Z,33.63
2023-01-25T13:49:02.131Z,34.97
2023-01-25T13:51:38.993Z,36.58
2023-01-25T13:54:42.868Z,37.60
2023-01-25T13:57:21.913Z,38.22
2023-01-25T14:00:16.791Z,36.90
2023-01-25T14:02:55.443Z,37.83
2023-01-25T14:05:30.457Z,40.15
2023-01-25T14:08:03.271Z,40.22
2023-01-25T14:10:35.465Z,40.35
2023-01-25T14:13:37.730Z,40.20
2023-01-25T14:16:10.778Z,41.85
2023-01-25T14:18:44.872Z,40.40
2023-01-25T14:21:20.612Z,41.00
2023-01-25T14:23:52.813Z,40.60
2023-01-25T14:26:27.053Z,39.03
2023-01-25T14:29:01.667Z,39.25
2023-01-25T14:31:40.692Z,42.33
2023-01-25T14:34:36.756Z,40.78
2023-01-25T14:37:20.910Z,43.72
2023-01-25T14:39:53.153Z,42.60
2023-01-25T14:42:25.288Z,47.55
2023-01-25T14:45:00.377Z,47.38
2023-01-25T14:47:33.310Z,46.00
2023-01-25T14:50:36.235Z,47.88
2023-01-25T14:53:23.981Z,47.10
2023-01-25T14:55:55.923Z,47.63
2023-01-25T14:58:31.656Z,45.00
2023-01-25T15:01:04.183Z,44.85
2023-01-25T15:03:44.865Z,43.55
2023-01-25T15:06:16.938Z,41.83
2023-01-25T15:08:49.111Z,44.88
2023-01-25T15:15:37.384Z,45.15
2023-01-25T15:18:54.386Z,45.30
2023-01-25T15:21:32.601Z,45.92
2023-01-25T15:24:10.932Z,48.67
2023-01-25T15:26:43.076Z,47.33
2023-01-25T15:29:21.054Z,50.30
2023-01-25T15:31:55.473Z,50.47
2023-01-25T15:35:36.061Z,49.97
2023-01-25T15:38:13.068Z,50.10
2023-01-25T15:40:48.908Z,48.25
2023-01-25T15:43:21.051Z,46.65
2023-01-25T15:45:56.747Z,50.15
2023-01-25T15:48:37.037Z,46.38
2023-01-25T15:51:09.288Z,45.65
2023-01-25T15:53:44.646Z,46.67
2023-01-25T15:56:19.761Z,45.17
2023-01-25T15:58:54.885Z,44.45
2023-01-25T16:01:30.888Z,43.47
2023-01-25T16:04:03.061Z,45.70
2023-01-25T16:06:42.100Z,41.67
2023-01-25T16:09:24.037Z,42.03
2023-01-25T16:11:59.415Z,40.50
2023-01-25T16:15:10.763Z,41.42
2023-01-25T16:17:43.471Z,42.22
2023-01-25T16:20:21.088Z,40.03
2023-01-25T16:23:11.346Z,41.00
2023-01-25T16:25:48.763Z,40.55
2023-01-25T16:29:14.899Z,43.90
2023-01-25T16:31:47.421Z,41.08
2023-01-25T16:34:21.128Z,42.05
2023-01-25T16:36:53.441Z,42.95
2023-01-25T16:40:06.864Z,41.28
2023-01-25T16:42:38.970Z,42.50
2023-01-25T16:45:11.241Z,41.45
2023-01-25T16:47:43.946Z,41.58
2023-01-25T16:50:21.516Z,44.00
2023-01-25T16:52:55.867Z,42.85
2023-01-25T16:55:27.997Z,41.55
2023-01-25T16:58:00.143Z,44.38
2023-01-25T17:00:32.187Z,43.13
2023-01-25T17:03:35.765Z,40.70
2023-01-25T17:06:09.083Z,42.22
2023-01-25T17:08:41.069Z,44.05
2023-01-25T17:11:13.534Z,43.75
2023-01-25T17:13:53.453Z,45.38
2023-01-25T17:16:29.676Z,44.85
2023-01-25T17:19:12.479Z,42.92
2023-01-25T17:21:45.367Z,42.47
2023-01-25T17:24:21.295Z,42.05
2023-01-25T17:26:57.719Z,43.92
2023-01-25T17:30:04.349Z,36.45
2023-01-25T17:32:36.314Z,35.42
2023-01-25T17:35:09.077Z,34.13
2023-01-25T17:38:01.604Z,37.75
2023-01-25T17:40:54.443Z,38.53
2023-01-25T17:43:28.097Z,36.30
2023-01-25T17:46:00.739Z,34.25
2023-01-25T17:48:35.705Z,34.50
2023-01-25T17:51:08.084Z,31.90
2023-01-25T17:53:40.928Z,32.53
2023-01-25T17:56:13.992Z,31.85
2023-01-25T17:58:46.469Z,30.75
2023-01-25T18:01:22.580Z,32.83
2023-01-25T18:03:55.767Z,31.45
2023-01-25T18:06:36.729Z,32.22
2023-01-25T18:09:09.166Z,34.72
2023-01-25T18:11:41.264Z,33.72
2023-01-25T18:14:17.532Z,33.03
2023-01-25T18:16:49.539Z,31.63
2023-01-25T18:19:21.620Z,27.58
2023-01-25T18:22:39.391Z,31.58
2023-01-25T18:25:34.406Z,30.55
2023-01-25T18:28:06.974Z,32.88
2023-01-25T18:30:52.962Z,31.63
2023-01-25T18:33:38.492Z,31.98
2023-01-25T18:36:36.345Z,32.40
2023-01-25T18:39:10.223Z,32.30
2023-01-25T18:41:44.658Z,35.78
2023-01-25T18:44:16.825Z,34.53
2023-01-25T18:46:49.203Z,33.70
2023-01-25T18:49:21.307Z,34.78
2023-01-25T18:52:10.517Z,34.15
2023-01-25T18:54:44.382Z,36.95
2023-01-25T18:57:17.766Z,37.85
2023-01-25T18:59:50.049Z,37.90
2023-01-25T19:02:23.645Z,39.63
2023-01-25T19:04:55.995Z,38.25
2023-01-25T19:07:28.223Z,35.28
2023-01-25T19:10:00.301Z,37.88
2023-01-25T19:12:32.364Z,35.92
2023-01-25T19:15:04.890Z,33.60
2023-01-25T19:17:36.846Z,35.92
2023-01-25T19:20:10.117Z,36.50
2023-01-25T19:22:42.174Z,37.00
2023-01-25T19:25:14.323Z,35.28
2023-01-25T19:27:46.503Z,37.53
2023-01-25T19:30:18.672Z,38.40
2023-01-25T19:33:53.544Z,34.75
2023-01-25T19:36:56.183Z,34.50
2023-01-25T19:39:28.359Z,36.88
2023-01-25T19:42:09.673Z,41.67
2023-01-25T19:44:41.705Z,41.72
2023-01-25T19:47:13.667Z,40.78
2023-01-25T19:49:45.922Z,42.00
2023-01-25T19:52:18.247Z,44.33
2023-01-25T19:54:50.353Z,42.22
2023-01-25T19:57:22.455Z,41.80
2023-01-25T19:59:57.056Z,37.80
2023-01-25T20:02:29.349Z,38.05
2023-01-25T20:05:01.325Z,36.40
2023-01-25T20:07:33.478Z,37.60
2023-01-25T20:10:06.392Z,37.53
2023-01-25T20:12:38.441Z,39.72
2023-01-25T20:18:57.167Z,38.67
2023-01-25T20:21:31.426Z,43.30
2023-01-25T20:24:06.087Z,42.28
2023-01-25T20:26:42.904Z,44.70
2023-01-25T20:29:15.424Z,43.65
2023-01-25T20:31:47.757Z,46.90
2023-01-25T20:34:22.734Z,42.35
2023-01-25T20:36:54.745Z,46.10
2023-01-25T20:39:26.981Z,40.35
2023-01-25T20:42:06.675Z,41.17
2023-01-25T20:44:38.828Z,38.80
2023-01-25T20:51:24.593Z,38.90
2023-01-25T20:57:26.184Z,41.00
2023-01-25T21:00:45.286Z,42.15
2023-01-25T21:03:17.388Z,45.20
2023-01-25T21:06:08.745Z,39.88
2023-01-25T21:08:40.889Z,41.42
2023-01-25T21:11:13.616Z,41.83
2023-01-25T21:13:45.702Z,41.60
2023-01-25T21:16:23.260Z,43.80
2023-01-25T21:18:58.684Z,41.28
2023-01-25T21:21:32.895Z,43.10
2023-01-25T21:24:06.140Z,43.03
2023-01-25T21:26:38.601Z,43.72
2023-01-25T21:29:10.581Z,42.63
2023-01-25T21:35:08.468Z,43.58
2023-01-25T21:37:40.724Z,39.13
2023-01-25T21:40:14.088Z,42.13
2023-01-25T21:42:47.641Z,43.33
2023-01-25T21:45:38.340Z,43.60
2023-01-25T21:49:26.150Z,39.00
2023-01-25T21:52:02.099Z,41.05
2023-01-25T21:54:37.164Z,41.85
2023-01-25T21:57:11.672Z,42.33
2023-01-25T21:59:45.000Z,41.20
2023-01-25T22:02:17.115Z,41.63
2023-01-25T22:05:05.032Z,41.13
2023-01-25T22:07:37.035Z,39.95
2023-01-25T22:10:10.139Z,41.35
2023-01-25T22:12:42.340Z,42.22
2023-01-25T22:15:14.510Z,41.50
2023-01-25T22:17:46.568Z,45.08
2023-01-25T22:20:18.645Z,42.03
2023-01-25T22:22:50.636Z,40.92
2023-01-25T22:26:17.454Z,41.75
2023-01-25T22:28:53.173Z,41.40
2023-01-25T22:31:28.312Z,41.78
2023-01-25T22:34:00.389Z,40.90
2023-01-25T22:36:32.694Z,42.78
2023-01-25T22:39:05.119Z,42.50
2023-01-25T22:42:35.279Z,43.67
2023-01-25T22:45:07.930Z,41.60
2023-01-25T22:47:41.988Z,43.67
2023-01-25T22:50:14.101Z,43.00
2023-01-25T22:52:46.267Z,42.83
2023-01-25T22:55:37.814Z,40.28
2023-01-25T22:58:10.397Z,42.80
2023-01-25T23:00:42.622Z,42.30
2023-01-25T23:03:14.685Z,39.40
2023-01-25T23:05:46.795Z,41.90
2023-01-25T23:08:18.960Z,42.80
2023-01-25T23:11:11.534Z,40.38
2023-01-25T23:14:07.851Z,37.67
2023-01-25T23:16:39.889Z,39.95
2023-01-25T23:19:13.254Z,43.03
2023-01-25T23:21:45.467Z,38.60
2023-01-25T23:24:17.636Z,40.30
2023-01-25T23:26:49.659Z,41.00
2023-01-25T23:29:21.656Z,40.38
2023-01-25T23:31:53.708Z,40.75
2023-01-25T23:34:39.641Z,39.78
2023-01-25T23:37:16.876Z,40.60
2023-01-25T23:39:50.343Z,40.78
2023-01-25T23:42:22.461Z,40.28
2023-01-25T23:45:11.344Z,40.25
2023-01-25T23:47:43.411Z,39.03
2023-01-25T23:50:15.920Z,38.45
2023-01-25T23:52:47.897Z,38.20
2023-01-25T23:55:20.259Z,38.05
2023-01-25T23:57:53.240Z,36.03
